ADDS METAR Data INFO
IDs: Format: Raw Decoded Include TAF

Data at: 0207 UTC 14 Dec 2017

KI69 140155Z AUTO 24018G26KT 10SM OVC048 06/M07 A2946 RMK AO2 T00611068
KI69 140135Z AUTO 23013G22KT 10SM OVC048 06/M07 A2945 RMK AO2 T00581074
KI69 140116Z AUTO 23014G21KT 10SM OVC050 06/M08 A2945 RMK AO2 T00551081
KI69 140055Z AUTO 23011G18KT 10SM OVC050 05/M09 A2946 RMK AO2 T00511090
KI69 140035Z AUTO 22014G21KT 10SM OVC050 05/M10 A2947 RMK AO2 T00491096
KI69 140016Z AUTO 22012G19KT 10SM OVC050 05/M10 A2947 RMK AO2 T00461100
KI69 132355Z AUTO 23014G20KT 10SM BKN050 BKN060 OVC100 05/M10 A2947 RMK AO2 T00451105 10045 20000
KI69 132335Z AUTO 24012G17KT 10SM BKN060 BKN070 OVC100 04/M11 A2949 RMK AO2 T00411109
KI69 132315Z AUTO 22010G17KT 10SM OVC050 04/M11 A2949 RMK AO2 T00401115
KI69 132255Z AUTO 22012G15KT 10SM OVC050 04/M12 A2949 RMK AO2 T00361120
KI69 132235Z AUTO 21007KT 10SM OVC050 04/M12 A2949 RMK AO2 T00351125
KI69 132215Z AUTO 20012G17KT 10SM SCT048 BKN050 BKN070 03/M13 A2949 RMK AO2 T00331128
KI69 132155Z AUTO 21012G20KT 10SM SCT110 03/M13 A2949 RMK AO2 T00311132
KI69 132135Z AUTO 20009G17KT 10SM CLR 03/M13 A2950 RMK AO2 T00301135
KI69 132115Z AUTO 20008G16KT 170V230 10SM CLR 03/M13 A2952 RMK AO2 T00301135
KI69 132055Z AUTO 21011G20KT 10SM CLR 03/M14 A2953 RMK AO2 T00281137
KI69 132035Z AUTO 21009G19KT 170V230 10SM CLR 03/M14 A2952 RMK AO2 T00251138
KI69 132015Z AUTO 18011G18KT 10SM BKN100 02/M14 A2951 RMK AO2 T00221139
KI69 131955Z AUTO 17012G16KT 10SM OVC100 02/M14 A2952 RMK AO2 T00191139
KI69 131935Z AUTO 18007G15KT 150V210 10SM OVC100 01/M14 A2955 RMK AO2 T00141138
KI69 131915Z AUTO 17010G18KT 10SM OVC100 01/M14 A2957 RMK AO2 T00111136
KI69 131855Z AUTO 18006G17KT 10SM OVC090 01/M14 A2962 RMK AO2 T00071143
KI69 131835Z AUTO 18011G17KT 160V220 10SM OVC090 01/M14 A2964 RMK AO2 T00061140
KI69 131815Z AUTO 19008G14KT 10SM OVC080 00/M14 A2966 RMK AO2 T00001137
KI69 131755Z AUTO 18011G16KT 10SM SCT070 OVC080 00/M14 A2968 RMK AO2 T00001140 10000 21067
KI69 131735Z AUTO 19010G15KT 10SM OVC070 00/M14 A2972 RMK AO2 T10041139
KI69 131715Z AUTO 19009G17KT 10SM OVC070 M01/M14 A2975 RMK AO2 T10121136
KI69 131655Z AUTO 20007G17KT 10SM OVC070 M02/M14 A2977 RMK AO2 T10161136
KI69 131635Z AUTO 19011G14KT 10SM OVC080 M02/M13 A2980 RMK AO2 T10181135
KI69 131615Z AUTO 21006KT 10SM OVC080 M02/M13 A2983 RMK AO2 T10201132
KI69 131555Z AUTO 22007KT 10SM OVC080 M02/M13 A2986 RMK AO2 T10251134
KI69 131535Z AUTO 19005KT 10SM BKN080 BKN120 M03/M13 A2986 RMK AO2 T10331129
KI69 131515Z AUTO 19009KT 160V220 10SM OVC080 M04/M13 A2986 RMK AO2 T10361127
KI69 131455Z AUTO 19007KT 150V230 10SM OVC080 M04/M12 A2987 RMK AO2 T10411125
KI69 131435Z AUTO 20007KT 10SM OVC080 M05/M12 A2989 RMK AO2 T10461124
KI69 131415Z AUTO 21007KT 10SM OVC080 M05/M12 A2990 RMK AO2 T10501119
KI69 131355Z AUTO 20006KT 10SM OVC080 M06/M12 A2990 RMK AO2 T10561120
KI69 131335Z AUTO 20004KT 10SM SCT050 SCT065 OVC080 M06/M12 A2992 RMK AO2 T10601120
KI69 131315Z AUTO 18003KT 10SM BKN055 OVC080 M06/M12 A2993 RMK AO2 T10611121
KI69 131255Z AUTO 00000KT 10SM OVC055 M06/M12 A2993 RMK AO2 T10651120
KI69 131235Z AUTO 20003KT 10SM OVC049 M07/M12 A2994 RMK AO2 T10661124
KI69 131215Z AUTO 19003KT 10SM SCT040 OVC049 M07/M12 A2994 RMK AO2 T10661124
KI69 131155Z AUTO 23003KT 10SM OVC040 M07/M13 A2995 RMK AO2 T10671126 11067 21082
KI69 131135Z AUTO 22004KT 10SM OVC040 M07/M13 A2995 RMK AO2 T10701129
KI69 131115Z AUTO 22005KT 10SM BKN042 BKN047 OVC085 M07/M13 A2995 RMK AO2 T10701127
KI69 131055Z AUTO 23007KT 10SM BKN047 OVC085 M07/M13 A2995 RMK AO2 T10741127
KI69 131035Z AUTO 23006KT 10SM BKN049 M08/M12 A2996 RMK AO2 T10781124
KI69 131015Z AUTO 23005KT 10SM CLR M08/M13 A2996 RMK AO2 T10801127
KI69 130955Z AUTO 23005KT 10SM CLR M08/M12 A2995 RMK AO2 T10801125
KI69 130935Z AUTO 24006KT 10SM CLR M08/M12 A2996 RMK AO2 T10811123
KI69 130915Z AUTO 24006KT 10SM CLR M08/M12 A2997 RMK AO2 T10811121
KI69 130855Z AUTO 24005KT 10SM SCT075 M08/M12 A2997 RMK AO2 T10811120
KI69 130835Z AUTO 24004KT 10SM BKN075 M07/M12 A2998 RMK AO2 T10751123
KI69 130815Z AUTO 25004KT 10SM CLR M08/M12 A2999 RMK AO2 T10771125
KI69 130755Z AUTO 25004KT 10SM CLR M08/M13 A2998 RMK AO2 T10761126
KI69 130735Z AUTO 27004KT 10SM CLR M08/M13 A2999 RMK AO2 T10771126
KI69 130715Z AUTO 25004KT 10SM CLR M08/M12 A2999 RMK AO2 T10811125
KI69 130655Z AUTO 25003KT 10SM CLR M08/M13 A2998 RMK AO2 T10771130
KI69 130635Z AUTO 23003KT 10SM CLR M07/M13 A2997 RMK AO2 T10751132
KI69 130615Z AUTO 26003KT 10SM CLR M07/M13 A2999 RMK AO2 T10751131
KI69 130555Z AUTO 26003KT 10SM CLR M07/M13 A2999 RMK AO2 T10731132 11035 21073 400581073
KI69 130535Z AUTO 25004KT 10SM CLR M07/M13 A3000 RMK AO2 T10711131
KI69 130515Z AUTO 25004KT 10SM CLR M07/M13 A3001 RMK AO2 T10701131
KI69 130455Z AUTO 27004KT 10SM CLR M07/M13 A3001 RMK AO2 T10681133
KI69 130435Z AUTO 28005KT 10SM CLR M07/M13 A3001 RMK AO2 T10661135
KI69 130415Z AUTO 30004KT 10SM CLR M06/M13 A3001 RMK AO2 T10651135
KI69 130355Z AUTO 29006KT 10SM CLR M06/M13 A3002 RMK AO2 T10621135
KI69 130335Z AUTO 30006KT 10SM SCT040 M06/M13 A3002 RMK AO2 T10621135
KI69 130315Z AUTO 30006KT 10SM SCT040 M06/M14 A3002 RMK AO2 T10611136
KI69 130255Z AUTO 30008KT 10SM CLR M06/M14 A3002 RMK AO2 T10581136
KI69 130235Z AUTO 32010KT 10SM CLR M06/M14 A3002 RMK AO2 T10561138
KI69 130216Z AUTO 31011G15KT 10SM SCT044 M05/M14 A3001 RMK AO2 T10551137
KI69 130155Z AUTO 31008G14KT 10SM BKN044 M05/M13 A3001 RMK AO2 T10501135
KI69 130135Z AUTO 33008G16KT 10SM OVC046 M04/M14 A3001 RMK AO2 T10451136
KI69 130116Z AUTO 31010KT 10SM OVC048 M04/M14 A3001 RMK AO2 T10421139
KI69 130055Z AUTO 33011G19KT 10SM OVC046 M04/M14 A3000 RMK AO2 T10381138
KI69 130035Z AUTO 30009G15KT 10SM OVC046 M03/M13 A3000 RMK AO2 T10351135
KI69 130015Z AUTO 28012G19KT 10SM OVC048 M03/M13 A3000 RMK AO2 T10351130
KI69 122355Z AUTO 27010G14KT 10SM OVC050 M03/M13 A2999 RMK AO2 T10351134 11014 21035
KI69 122335Z AUTO 30010G18KT 10SM OVC050 M03/M14 A2999 RMK AO2 T10351138
KI69 122315Z AUTO 30011G16KT 10SM SCT050 OVC055 M03/M13 A2998 RMK AO2 T10341135
KI69 122255Z AUTO 30009G15KT 10SM OVC050 M03/M13 A2998 RMK AO2 T10351134
KI69 122235Z AUTO 30013G19KT 10SM SCT044 BKN055 M03/M13 A2997 RMK AO2 T10341129
KI69 122215Z AUTO 30016G21KT 10SM BKN048 BKN055 M03/M13 A2997 RMK AO2 T10331128
KI69 122155Z AUTO 30015G22KT 10SM OVC050 M03/M13 A2996 RMK AO2 T10291132
KI69 122135Z AUTO 30013G17KT 10SM SCT049 OVC055 M03/M12 A2996 RMK AO2 T10301124
KI69 122115Z AUTO 32014G21KT 280V340 10SM OVC055 M03/M12 A2996 RMK AO2 T10271125
KI69 122055Z AUTO 29013G24KT 10SM SCT041 OVC055 M02/M12 A2995 RMK AO2 T10241122
KI69 122035Z AUTO 30014G19KT 10SM SCT039 BKN060 OVC065 M02/M12 A2995 RMK AO2 T10251116
KI69 122015Z AUTO 31010G23KT 10SM BKN048 OVC060 M02/M12 A2994 RMK AO2 T10231124
KI69 121955Z AUTO 30015G24KT 10SM SCT048 OVC060 M02/M13 A2994 RMK AO2 T10171130
KI69 121935Z AUTO 29014G21KT 10SM SCT046 OVC060 M02/M12 A2994 RMK AO2 T10211120
KI69 121915Z AUTO 30013G22KT 10SM SCT044 OVC060 M02/M11 A2994 RMK AO2 T10161106
KI69 121855Z AUTO 31015G22KT 10SM SCT029 SCT035 OVC060 M02/M10 A2994 RMK AO2 T10211100
KI69 121835Z AUTO 30015G21KT 10SM SCT035 OVC050 M02/M09 A2994 RMK AO2 T10211093
KI69 121815Z AUTO 31015G22KT 10SM SCT039 OVC060 M02/M09 A2994 RMK AO2 T10181089
KI69 121755Z AUTO 31013G17KT 10SM UP BKN039 BKN045 OVC050 M02/M09 A2994 RMK AO2 T10201087 10005 21030
KI69 121735Z AUTO 32014G22KT 10SM SCT044 OVC050 M02/M09 A2994 RMK AO2 T10211090
KI69 121715Z AUTO 33010G21KT 10SM UP SCT030 BKN043 OVC050 M02/M08 A2994 RMK AO2 T10251083
KI69 121656Z AUTO 35013G16KT 10SM SCT044 OVC050 M02/M06 A2995 RMK AO2 T10191063
KI69 121635Z AUTO 32010G18KT 10SM -SN SCT028 BKN041 OVC055 M03/M07 A2996 RMK AO2 T10281069
KI69 121615Z AUTO 33014G21KT 310V010 10SM UP SCT026 BKN041 OVC048 M01/M07 A2995 RMK AO2 T10151068
KI69 121555Z AUTO 33012KT 10SM BKN027 BKN041 OVC047 M02/M07 A2994 RMK AO2 T10161067
KI69 121535Z AUTO 32011G15KT 290V360 10SM UP BKN027 OVC033 M02/M07 A2994 RMK AO2 T10161066
KI69 121515Z AUTO 33012G17KT 10SM BKN020 BKN028 OVC049 M01/M05 A2994 RMK AO2 T10151051
KI69 121455Z AUTO 34009G20KT 10SM -SN BKN018 BKN025 OVC065 M02/M05 A2993 RMK AO2 T10201048
KI69 121435Z AUTO 34010G16KT 4SM -SN SCT010 BKN025 OVC038 M02/M04 A2992 RMK AO2 T10211044
KI69 121415Z AUTO 34015G25KT 1 1/4SM -SN SCT010 OVC020 M02/M04 A2992 RMK AO2 T10171039